Time;durP1;ratioP1;P1;durP2;ratioP2;P2;SDS_P1;SDS_P2;PMS_P1;PMS_P2;Temp;Humidity;BMP_temperature;BMP_pressure;BME280_temperature;BME280_humidity;BME280_pressure;Samples;Min_cycle;Max_cycle;Signal;HPM_P1;HPM_P2
2022/07/29 00:02:20;;;;;;;;;;;;;;;;;;5139278;27;19915;-89
2022/07/29 00:04:46;;;;;;;;;;;;;;;;;;5135930;27;19923;-89
2022/07/29 00:07:11;;;;;;;;;;;;;;;;;;5135880;27;19916;-88
2022/07/29 00:09:36;;;;;;;;;;;;;;;;;;5136491;27;20337;-90
2022/07/29 00:12:02;;;;;;;;;;;;;;;;;;5134546;27;19915;-89
2022/07/29 00:14:27;;;;;;;;;;;;;;;;;;5134361;27;19911;-89
2022/07/29 00:16:52;;;;;;;;;;;;;;;;;;5136170;27;19923;-89
2022/07/29 00:19:18;;;;;;;;;;;;;;;;;;5142521;27;20439;-87
2022/07/29 00:21:43;;;;;;;;;;;;;;;;;;5141003;27;20002;-87
2022/07/29 00:24:08;;;;;;;;;;;;;;;;;;5135866;27;19922;-85
2022/07/29 00:26:34;;;;;;;;;;;;;;;;;;5134704;27;19915;-88
2022/07/29 00:28:59;;;;;;;;;;;;;;;;;;5135782;27;19920;-89
2022/07/29 00:31:25;;;;;;;;;;;;;;;;;;5134302;27;20343;-88
2022/07/29 00:33:50;;;;;;;;;;;;;;;;;;5134923;27;19915;-86
2022/07/29 00:36:16;;;;;;;;;;;;;;;;;;5135697;27;19961;-88
2022/07/29 00:38:44;;;;;;;;;;;;;;;;;;5136230;27;19954;-86
2022/07/29 00:41:10;;;;;;;;;;;;;;;;;;5139169;28;20015;-87
2022/07/29 00:43:35;;;;;;;;;;;;;;;;;;5145318;27;19920;-88
2022/07/29 00:46:01;;;;;;;;;;;;;;;;;;5117098;27;19916;-87
2022/07/29 00:48:26;;;;;;;;;;;;;;;;;;5133908;27;19916;-87
2022/07/29 00:50:52;;;;;;;;;;;;;;;;;;5135118;27;20452;-88
2022/07/29 00:53:17;;;;;;;;;;;;;;;;;;5139177;27;19916;-89
2022/07/29 00:55:42;;;;;;;;;;;;;;;;;;5139017;27;19942;-87
2022/07/29 00:58:07;;;;;;;;;;;;;;;;;;5139316;27;20347;-88
2022/07/29 01:00:33;;;;;;;;;;;;;;;;;;5122118;27;19918;-88
2022/07/29 01:02:58;;;;;;;;;;;;;;;;;;5140426;27;20002;-87
2022/07/29 01:05:24;;;;;;;;;;;;;;;;;;5140278;27;20029;-88
2022/07/29 01:07:50;;;;;;;;;;;;;;;;;;5138598;27;20002;-87
2022/07/29 01:10:16;;;;;;;;;;;;;;;;;;5120766;27;20316;-88
2022/07/29 01:12:41;;;;;;;;;;;;;;;;;;5137788;27;19915;-87
2022/07/29 01:15:07;;;;;;;;;;;;;;;;;;5138997;27;19939;-87
2022/07/29 01:17:35;;;;;;;;;;;;;;;;;;5137354;27;19921;-87
2022/07/29 01:20:01;;;;;;;;;;;;;;;;;;5139003;27;19915;-89
2022/07/29 01:22:41;;;;;;;;;;;;;;;;;;5139173;27;19922;-87
2022/07/29 01:25:18;;;;;;;;;;;;;;;;;;5138957;27;20342;-89
2022/07/29 01:27:59;;;;;;;;;;;;;;;;;;5138523;27;19923;-89
2022/07/29 01:30:24;;;;;;;;;;;;;;;;;;5138701;27;20067;-87
2022/07/29 01:32:50;;;;;;;;;;;;;;;;;;5136881;27;19972;-88
2022/07/29 01:35:23;;;;;;;;;;;;;;;;;;5138468;27;20051;-87
2022/07/29 01:37:50;;;;;;;;;;;;;;;;;;5137630;27;19915;-87
2022/07/29 01:40:32;;;;;;;;;;;;;;;;;;5137001;27;19915;-87
2022/07/29 01:42:58;;;;;;;;;;;;;;;;;;5144818;27;19933;-87
2022/07/29 01:45:26;;;;;;;;;;;;;;;;;;5141574;27;20010;-87
2022/07/29 01:47:51;;;;;;;;;;;;;;;;;;5119547;27;19915;-87
2022/07/29 01:50:17;;;;;;;;;;;;;;;;;;5138343;27;19923;-87
2022/07/29 01:52:44;;;;;;;;;;;;;;;;;;5119683;27;19973;-87
2022/07/29 01:55:12;;;;;;;;;;;;;;;;;;5136598;27;19919;-86
2022/07/29 01:57:37;;;;;;;;;;;;;;;;;;5137072;27;19915;-87
2022/07/29 02:00:03;;;;;;;;;;;;;;;;;;5136908;27;19965;-88
2022/07/29 02:02:28;;;;;;;;;;;;;;;;;;5137351;27;19915;-87
2022/07/29 02:04:54;;;;;;;;;;;;;;;;;;5138478;27;20014;-87
2022/07/29 02:07:19;;;;;;;;;;;;;;;;;;5141258;27;20254;-86
2022/07/29 02:09:45;;;;;;;;;;;;;;;;;;5137967;27;19954;-88
2022/07/29 02:12:10;;;;;;;;;;;;;;;;;;5136881;27;19916;-87
2022/07/29 02:14:37;;;;;;;;;;;;;;;;;;5137088;27;20302;-87
2022/07/29 02:17:02;;;;;;;;;;;;;;;;;;5136451;27;19921;-87
2022/07/29 02:19:27;;;;;;;;;;;;;;;;;;5136676;27;20244;-87
2022/07/29 02:21:53;;;;;;;;;;;;;;;;;;5137874;27;19916;-86
2022/07/29 02:24:18;;;;;;;;;;;;;;;;;;5136824;27;19915;-86
2022/07/29 02:26:44;;;;;;;;;;;;;;;;;;5142729;27;19962;-87
2022/07/29 02:29:09;;;;;;;;;;;;;;;;;;5137606;27;19920;-87
2022/07/29 02:31:35;;;;;;;;;;;;;;;;;;5136394;27;19977;-87
2022/07/29 02:34:01;;;;;;;;;;;;;;;;;;5136239;27;19923;-87
2022/07/29 02:36:27;;;;;;;;;;;;;;;;;;5136586;27;19916;-88
2022/07/29 02:38:53;;;;;;;;;;;;;;;;;;5136499;27;20225;-86
2022/07/29 02:41:20;;;;;;;;;;;;;;;;;;5136148;27;19923;-86
2022/07/29 02:43:47;;;;;;;;;;;;;;;;;;5136280;27;19915;-87
2022/07/29 02:46:14;;;;;;;;;;;;;;;;;;5136251;27;20029;-86
2022/07/29 02:48:44;;;;;;;;;;;;;;;;;;5139039;27;20306;-88
2022/07/29 02:51:12;;;;;;;;;;;;;;;;;;5136120;27;19916;-88
2022/07/29 02:53:37;;;;;;;;;;;;;;;;;;5135815;27;19915;-87
2022/07/29 02:56:12;;;;;;;;;;;;;;;;;;5135873;27;20269;-89
2022/07/29 02:58:39;;;;;;;;;;;;;;;;;;5136086;27;19927;-88
2022/07/29 03:01:08;;;;;;;;;;;;;;;;;;5135706;27;19972;-88
2022/07/29 03:03:34;;;;;;;;;;;;;;;;;;5136210;27;19923;-87
2022/07/29 03:06:00;;;;;;;;;;;;;;;;;;5136422;27;19916;-86
2022/07/29 03:08:25;;;;;;;;;;;;;;;;;;5141980;27;19922;-86
2022/07/29 03:10:51;;;;;;;;;;;;;;;;;;5138588;27;20360;-89
2022/07/29 03:13:16;;;;;;;;;;;;;;;;;;5136657;27;19926;-88
2022/07/29 03:15:42;;;;;;;;;;;;;;;;;;5134757;27;19915;-87
2022/07/29 03:18:08;;;;;;;;;;;;;;;;;;5135962;27;20256;-87
2022/07/29 03:20:33;;;;;;;;;;;;;;;;;;5136310;27;19923;-86
2022/07/29 03:22:58;;;;;;;;;;;;;;;;;;5160224;27;19927;-87
2022/07/29 03:25:24;;;;;;;;;;;;;;;;;;5153083;27;19904;-86
2022/07/29 03:28:07;;;;;;;;;;;;;;;;;;5150644;27;19954;-87
2022/07/29 03:30:38;;;;;;;;;;;;;;;;;;5143264;27;19916;-87
2022/07/29 03:33:04;;;;;;;;;;;;;;;;;;5137036;27;20249;-86
2022/07/29 03:35:31;;;;;;;;;;;;;;;;;;5136580;27;19915;-87
2022/07/29 03:37:56;;;;;;;;;;;;;;;;;;5137502;27;19918;-87
2022/07/29 03:40:23;;;;;;;;;;;;;;;;;;5136572;27;19919;-88
2022/07/29 03:42:48;;;;;;;;;;;;;;;;;;5135356;27;19911;-88
2022/07/29 03:45:16;;;;;;;;;;;;;;;;;;5136350;27;19923;-87
2022/07/29 03:47:42;;;;;;;;;;;;;;;;;;5135530;27;19915;-87
2022/07/29 03:50:08;;;;;;;;;;;;;;;;;;5138859;27;19896;-88
2022/07/29 03:52:33;;;;;;;;;;;;;;;;;;5146509;27;19919;-88
2022/07/29 03:54:59;;;;;;;;;;;;;;;;;;5117722;27;19920;-87
2022/07/29 03:57:24;;;;;;;;;;;;;;;;;;5135478;27;20349;-89
2022/07/29 03:59:50;;;;;;;;;;;;;;;;;;5136183;27;19975;-88
2022/07/29 04:02:16;;;;;;;;;;;;;;;;;;5136329;27;19958;-88
2022/07/29 04:04:41;;;;;;;;;;;;;;;;;;5135357;27;20290;-88
2022/07/29 04:07:06;;;;;;;;;;;;;;;;;;5136769;27;19922;-85
2022/07/29 04:09:32;;;;;;;;;;;;;;;;;;5136154;27;20447;-86
2022/07/29 04:11:57;;;;;;;;;;;;;;;;;;5149387;27;19920;-87
2022/07/29 04:14:22;;;;;;;;;;;;;;;;;;5138846;27;19923;-87
2022/07/29 04:16:47;;;;;;;;;;;;;;;;;;5145793;27;20017;-88
2022/07/29 04:19:13;;;;;;;;;;;;;;;;;;5141350;27;20328;-88
2022/07/29 04:21:38;;;;;;;;;;;;;;;;;;5144115;27;20003;-86
2022/07/29 04:24:04;;;;;;;;;;;;;;;;;;5134953;28;20280;-88
2022/07/29 04:26:29;;;;;;;;;;;;;;;;;;5137211;27;20014;-89
2022/07/29 04:28:54;;;;;;;;;;;;;;;;;;5140799;27;19916;-88
2022/07/29 04:31:20;;;;;;;;;;;;;;;;;;5153788;27;19924;-88
2022/07/29 04:33:46;;;;;;;;;;;;;;;;;;5151017;27;19919;-89
2022/07/29 04:36:11;;;;;;;;;;;;;;;;;;5140713;27;19954;-88
2022/07/29 04:38:37;;;;;;;;;;;;;;;;;;5138849;27;20316;-86
2022/07/29 04:41:02;;;;;;;;;;;;;;;;;;5138719;27;19916;-85
2022/07/29 04:43:27;;;;;;;;;;;;;;;;;;5139989;27;19916;-85
2022/07/29 04:45:53;;;;;;;;;;;;;;;;;;5138674;27;20533;-86
2022/07/29 04:48:18;;;;;;;;;;;;;;;;;;5139878;27;19929;-85
2022/07/29 04:50:44;;;;;;;;;;;;;;;;;;5139658;27;19915;-86
2022/07/29 04:53:09;;;;;;;;;;;;;;;;;;5144819;27;19919;-85
2022/07/29 04:55:36;;;;;;;;;;;;;;;;;;5148144;27;20027;-86
2022/07/29 04:58:01;;;;;;;;;;;;;;;;;;5139701;27;19988;-86
2022/07/29 05:00:26;;;;;;;;;;;;;;;;;;5139874;27;20321;-87
2022/07/29 05:02:51;;;;;;;;;;;;;;;;;;5139573;27;19916;-88
2022/07/29 05:05:17;;;;;;;;;;;;;;;;;;5139617;27;19915;-87
2022/07/29 05:07:42;;;;;;;;;;;;;;;;;;5140901;27;19972;-88
2022/07/29 05:10:08;;;;;;;;;;;;;;;;;;5142158;27;20447;-87
2022/07/29 05:12:33;;;;;;;;;;;;;;;;;;5148571;27;19983;-86
2022/07/29 05:14:58;;;;;;;;;;;;;;;;;;5158844;27;19911;-87
2022/07/29 05:17:25;;;;;;;;;;;;;;;;;;5156795;27;19939;-89
2022/07/29 05:19:51;;;;;;;;;;;;;;;;;;5158295;27;19936;-87
2022/07/29 05:22:21;;;;;;;;;;;;;;;;;;5157506;27;19916;-89
2022/07/29 05:24:46;;;;;;;;;;;;;;;;;;5148788;27;19916;-89
2022/07/29 05:27:11;;;;;;;;;;;;;;;;;;5151035;27;19915;-87
2022/07/29 05:29:37;;;;;;;;;;;;;;;;;;5133534;27;19967;-88
2022/07/29 05:32:03;;;;;;;;;;;;;;;;;;5150133;27;20014;-87
2022/07/29 05:34:28;;;;;;;;;;;;;;;;;;5156192;27;19942;-86
2022/07/29 05:36:54;;;;;;;;;;;;;;;;;;5140694;27;19927;-89
2022/07/29 05:39:20;;;;;;;;;;;;;;;;;;5156501;27;19998;-88
2022/07/29 05:41:45;;;;;;;;;;;;;;;;;;5137517;27;19958;-87
2022/07/29 05:44:13;;;;;;;;;;;;;;;;;;5146259;27;20345;-87
2022/07/29 05:46:38;;;;;;;;;;;;;;;;;;5147173;27;19919;-88
2022/07/29 05:49:04;;;;;;;;;;;;;;;;;;5142640;27;19915;-88
2022/07/29 05:51:30;;;;;;;;;;;;;;;;;;5145561;27;19923;-86
2022/07/29 05:53:57;;;;;;;;;;;;;;;;;;5151679;27;19916;-86
2022/07/29 05:56:23;;;;;;;;;;;;;;;;;;5158142;27;19907;-87
2022/07/29 05:58:48;;;;;;;;;;;;;;;;;;5157303;27;19922;-89
2022/07/29 06:01:14;;;;;;;;;;;;;;;;;;5155688;27;19915;-88
2022/07/29 06:03:41;;;;;;;;;;;;;;;;;;5153540;27;19947;-89
2022/07/29 06:06:07;;;;;;;;;;;;;;;;;;5148706;27;19915;-89
2022/07/29 06:08:33;;;;;;;;;;;;;;;;;;5147325;27;19915;-89
2022/07/29 06:10:59;;;;;;;;;;;;;;;;;;5141588;27;20260;-86
2022/07/29 06:13:24;;;;;;;;;;;;;;;;;;5139137;27;19916;-86
2022/07/29 06:15:49;;;;;;;;;;;;;;;;;;5139101;27;19943;-83
2022/07/29 06:18:15;;;;;;;;;;;;;;;;;;5150984;27;19920;-86
2022/07/29 06:20:41;;;;;;;;;;;;;;;;;;5141927;27;20291;-84
2022/07/29 06:23:06;;;;;;;;;;;;;;;;;;5139172;27;19926;-84
2022/07/29 06:25:36;;;;;;;;;;;;;;;;;;5138371;27;19915;-82
2022/07/29 06:28:01;;;;;;;;;;;;;;;;;;5138287;27;19915;-83
2022/07/29 06:30:28;;;;;;;;;;;;;;;;;;5136332;27;19912;-83
2022/07/29 06:32:53;;;;;;;;;;;;;;;;;;5119903;27;20018;-83
2022/07/29 06:35:19;;;;;;;;;;;;;;;;;;5138887;27;19965;-85
2022/07/29 06:37:44;;;;;;;;;;;;;;;;;;5143614;27;20340;-84
2022/07/29 06:42:54;;;;;;;;;;;;;;;;;;5138706;27;19994;-83
2022/07/29 06:45:25;;;;;;;;;;;;;;;;;;5138039;27;20013;-84
2022/07/29 06:47:51;;;;;;;;;;;;;;;;;;5138716;27;19922;-83
2022/07/29 06:50:16;;;;;;;;;;;;;;;;;;5136919;27;20002;-83
2022/07/29 06:52:41;;;;;;;;;;;;;;;;;;5136721;27;19915;-83
2022/07/29 06:55:07;;;;;;;;;;;;;;;;;;5138220;27;19919;-84
2022/07/29 06:57:33;;;;;;;;;;;;;;;;;;5137753;27;19919;-83
2022/07/29 06:59:58;;;;;;;;;;;;;;;;;;5147576;27;20249;-83
2022/07/29 07:02:23;;;;;;;;;;;;;;;;;;5138118;27;19973;-84
2022/07/29 07:04:49;;;;;;;;;;;;;;;;;;5138367;27;19970;-84
2022/07/29 07:07:14;;;;;;;;;;;;;;;;;;5137578;27;20332;-83
2022/07/29 07:09:39;;;;;;;;;;;;;;;;;;5137968;27;20373;-84
2022/07/29 07:12:05;;;;;;;;;;;;;;;;;;5138435;27;19938;-84
2022/07/29 07:14:30;;;;;;;;;;;;;;;;;;5119151;27;20306;-83
2022/07/29 07:16:57;;;;;;;;;;;;;;;;;;5137581;27;20085;-84
2022/07/29 07:19:22;;;;;;;;;;;;;;;;;;5141527;27;19958;-82
2022/07/29 07:21:53;;;;;;;;;;;;;;;;;;5142574;27;19920;-84
2022/07/29 07:24:18;;;;;;;;;;;;;;;;;;5137595;27;19947;-82
2022/07/29 07:26:52;;;;;;;;;;;;;;;;;;5136561;27;19922;-82
2022/07/29 07:29:17;;;;;;;;;;;;;;;;;;5135337;27;19915;-83
2022/07/29 07:31:42;;;;;;;;;;;;;;;;;;5136742;27;19965;-83
2022/07/29 07:34:07;;;;;;;;;;;;;;;;;;5118316;27;19916;-82
2022/07/29 07:36:33;;;;;;;;;;;;;;;;;;5135217;27;19922;-83
2022/07/29 07:38:58;;;;;;;;;;;;;;;;;;5136472;27;20046;-83
2022/07/29 07:41:24;;;;;;;;;;;;;;;;;;5147122;27;20305;-82
2022/07/29 07:43:49;;;;;;;;;;;;;;;;;;5138105;27;19954;-83
2022/07/29 07:46:14;;;;;;;;;;;;;;;;;;5136515;27;19915;-83
2022/07/29 07:48:41;;;;;;;;;;;;;;;;;;5136656;27;19915;-83
2022/07/29 07:51:07;;;;;;;;;;;;;;;;;;5136347;27;20294;-83
2022/07/29 07:53:32;;;;;;;;;;;;;;;;;;5136231;27;19964;-83
2022/07/29 07:55:57;;;;;;;;;;;;;;;;;;5135812;27;20356;-83
2022/07/29 07:58:23;;;;;;;;;;;;;;;;;;5134881;27;19915;-83
2022/07/29 08:00:48;;;;;;;;;;;;;;;;;;5138180;27;19921;-82
2022/07/29 08:03:14;;;;;;;;;;;;;;;;;;5142357;27;19915;-83
2022/07/29 08:05:40;;;;;;;;;;;;;;;;;;5117393;27;19915;-83
2022/07/29 08:08:05;;;;;;;;;;;;;;;;;;5136161;27;20355;-83
2022/07/29 08:13:15;;;;;;;;;;;;;;;;;;5135196;27;20067;-83
2022/07/29 08:15:41;;;;;;;;;;;;;;;;;;5135618;27;19947;-82
2022/07/29 08:18:07;;;;;;;;;;;;;;;;;;5117369;27;19926;-82
2022/07/29 08:20:35;;;;;;;;;;;;;;;;;;5136011;27;19911;-82
2022/07/29 08:23:00;;;;;;;;;;;;;;;;;;5126233;27;19920;-84
2022/07/29 08:25:25;;;;;;;;;;;;;;;;;;5135941;27;19923;-81
2022/07/29 08:27:51;;;;;;;;;;;;;;;;;;5135685;27;19916;-84
2022/07/29 08:30:16;;;;;;;;;;;;;;;;;;5136317;27;19951;-84
2022/07/29 08:32:41;;;;;;;;;;;;;;;;;;5134088;27;19950;-84
2022/07/29 08:35:07;;;;;;;;;;;;;;;;;;5136089;27;19915;-80
2022/07/29 08:37:33;;;;;;;;;;;;;;;;;;5134958;27;19923;-82
2022/07/29 08:40:02;;;;;;;;;;;;;;;;;;5135511;27;20317;-83
2022/07/29 08:42:27;;;;;;;;;;;;;;;;;;5139839;27;19923;-81
2022/07/29 08:44:53;;;;;;;;;;;;;;;;;;5140833;27;19915;-82
2022/07/29 08:47:18;;;;;;;;;;;;;;;;;;5135885;27;19937;-83
2022/07/29 08:49:45;;;;;;;;;;;;;;;;;;5135391;27;20404;-82
2022/07/29 08:52:11;;;;;;;;;;;;;;;;;;5134668;27;19915;-82
2022/07/29 08:54:36;;;;;;;;;;;;;;;;;;5117000;27;19959;-82
2022/07/29 08:57:02;;;;;;;;;;;;;;;;;;5134759;27;19943;-82
2022/07/29 08:59:27;;;;;;;;;;;;;;;;;;5134512;27;19960;-82
2022/07/29 09:01:53;;;;;;;;;;;;;;;;;;5134815;27;20329;-81
2022/07/29 09:04:19;;;;;;;;;;;;;;;;;;5143668;27;19962;-81
2022/07/29 09:06:45;;;;;;;;;;;;;;;;;;5134075;27;20324;-82
2022/07/29 09:09:10;;;;;;;;;;;;;;;;;;5133679;27;19919;-81
2022/07/29 09:11:36;;;;;;;;;;;;;;;;;;5134266;27;20348;-81
2022/07/29 09:14:01;;;;;;;;;;;;;;;;;;5137766;27;20018;-82
2022/07/29 09:16:40;;;;;;;;;;;;;;;;;;5138665;27;19920;-82
2022/07/29 09:19:10;;;;;;;;;;;;;;;;;;5137545;27;19915;-82
2022/07/29 09:21:58;;;;;;;;;;;;;;;;;;5120148;27;19916;-81
2022/07/29 09:24:23;;;;;;;;;;;;;;;;;;5143937;27;19945;-82
2022/07/29 09:26:48;;;;;;;;;;;;;;;;;;5137720;27;20018;-82
2022/07/29 09:29:14;;;;;;;;;;;;;;;;;;5138578;27;19977;-81
2022/07/29 09:31:42;;;;;;;;;;;;;;;;;;5138021;27;19916;-82
2022/07/29 09:34:08;;;;;;;;;;;;;;;;;;5139293;27;19954;-81
2022/07/29 09:36:40;;;;;;;;;;;;;;;;;;5138071;27;19999;-81
2022/07/29 09:39:05;;;;;;;;;;;;;;;;;;5142843;27;20007;-81
2022/07/29 09:41:43;;;;;;;;;;;;;;;;;;5141376;27;19947;-81
2022/07/29 09:44:08;;;;;;;;;;;;;;;;;;5138504;27;19916;-79
2022/07/29 09:46:34;;;;;;;;;;;;;;;;;;5140767;27;19923;-82
2022/07/29 09:49:09;;;;;;;;;;;;;;;;;;5136777;27;19922;-81
2022/07/29 09:51:34;;;;;;;;;;;;;;;;;;5138079;27;19911;-82
2022/07/29 09:54:03;;;;;;;;;;;;;;;;;;5136889;27;19927;-81
2022/07/29 09:56:41;;;;;;;;;;;;;;;;;;5137879;27;19919;-81
2022/07/29 09:59:06;;;;;;;;;;;;;;;;;;5136917;27;19922;-82
2022/07/29 10:01:32;;;;;;;;;;;;;;;;;;5138002;27;20277;-81
2022/07/29 10:03:57;;;;;;;;;;;;;;;;;;5138532;27;19919;-80
2022/07/29 10:06:22;;;;;;;;;;;;;;;;;;5141422;27;20301;-81
2022/07/29 10:08:49;;;;;;;;;;;;;;;;;;5140190;27;19915;-81
2022/07/29 10:11:16;;;;;;;;;;;;;;;;;;5136847;27;19923;-82
2022/07/29 10:13:41;;;;;;;;;;;;;;;;;;5137783;27;19922;-82
2022/07/29 10:16:07;;;;;;;;;;;;;;;;;;5137554;27;20018;-82
2022/07/29 10:18:32;;;;;;;;;;;;;;;;;;5137437;27;19937;-81
2022/07/29 10:20:57;;;;;;;;;;;;;;;;;;5137373;27;19915;-82
2022/07/29 10:23:23;;;;;;;;;;;;;;;;;;5135537;27;19916;-82
2022/07/29 10:25:49;;;;;;;;;;;;;;;;;;5142160;27;19966;-81
2022/07/29 10:28:14;;;;;;;;;;;;;;;;;;5136307;27;19915;-83
2022/07/29 10:30:40;;;;;;;;;;;;;;;;;;5137101;27;19922;-82
2022/07/29 10:33:24;;;;;;;;;;;;;;;;;;5137472;27;19916;-81
2022/07/29 10:36:01;;;;;;;;;;;;;;;;;;5136924;27;20465;-82
2022/07/29 10:38:42;;;;;;;;;;;;;;;;;;5136978;27;19998;-81
2022/07/29 10:41:28;;;;;;;;;;;;;;;;;;5137171;27;20006;-81
2022/07/29 10:44:04;;;;;;;;;;;;;;;;;;5137157;27;19919;-81
2022/07/29 10:46:34;;;;;;;;;;;;;;;;;;5138554;27;19916;-82
2022/07/29 10:49:11;;;;;;;;;;;;;;;;;;5118847;27;20262;-82
2022/07/29 10:51:55;;;;;;;;;;;;;;;;;;5136913;27;19915;-82
2022/07/29 10:54:33;;;;;;;;;;;;;;;;;;5136848;27;19919;-81
2022/07/29 10:57:12;;;;;;;;;;;;;;;;;;5136930;27;19915;-81
2022/07/29 10:59:37;;;;;;;;;;;;;;;;;;5118616;27;19943;-82
2022/07/29 11:02:03;;;;;;;;;;;;;;;;;;5136890;27;20333;-81
2022/07/29 11:04:43;;;;;;;;;;;;;;;;;;5135744;27;19915;-82
2022/07/29 11:07:09;;;;;;;;;;;;;;;;;;5138820;27;19916;-81
2022/07/29 11:09:34;;;;;;;;;;;;;;;;;;5145942;27;20337;-82
2022/07/29 11:11:59;;;;;;;;;;;;;;;;;;5136431;27;20002;-82
2022/07/29 11:14:43;;;;;;;;;;;;;;;;;;5135506;27;19919;-81
2022/07/29 11:17:09;;;;;;;;;;;;;;;;;;5136851;27;19922;-81
2022/07/29 11:19:34;;;;;;;;;;;;;;;;;;5117785;27;20269;-80
2022/07/29 11:21:59;;;;;;;;;;;;;;;;;;5136516;27;19937;-80
2022/07/29 11:24:30;;;;;;;;;;;;;;;;;;5136230;27;19922;-80
2022/07/29 11:27:12;;;;;;;;;;;;;;;;;;5136232;27;19954;-81
2022/07/29 11:29:48;;;;;;;;;;;;;;;;;;5143164;27;19939;-81
2022/07/29 11:32:19;;;;;;;;;;;;;;;;;;5136580;27;20019;-81
2022/07/29 11:34:44;;;;;;;;;;;;;;;;;;5134384;27;19925;-81
2022/07/29 11:37:12;;;;;;;;;;;;;;;;;;5135712;27;19916;-81
2022/07/29 11:39:44;;;;;;;;;;;;;;;;;;5135918;27;19926;-81
2022/07/29 11:42:24;;;;;;;;;;;;;;;;;;5135689;27;19920;-81
2022/07/29 11:45:00;;;;;;;;;;;;;;;;;;5135993;27;19922;-82
2022/07/29 11:47:26;;;;;;;;;;;;;;;;;;5136072;27;19916;-81
2022/07/29 11:49:52;;;;;;;;;;;;;;;;;;5136769;27;19923;-82
2022/07/29 11:52:17;;;;;;;;;;;;;;;;;;5141264;27;19915;-87
2022/07/29 11:54:45;;;;;;;;;;;;;;;;;;5135595;27;19927;-88
2022/07/29 11:57:10;;;;;;;;;;;;;;;;;;5134522;27;19968;-87
2022/07/29 11:59:39;;;;;;;;;;;;;;;;;;5136397;27;19919;-87
2022/07/29 12:02:04;;;;;;;;;;;;;;;;;;5136139;27;19965;-88
2022/07/29 12:04:30;;;;;;;;;;;;;;;;;;5118024;27;19915;-87
2022/07/29 12:06:55;;;;;;;;;;;;;;;;;;5135796;27;20289;-88
2022/07/29 12:09:21;;;;;;;;;;;;;;;;;;5135942;27;19915;-85
2022/07/29 12:11:46;;;;;;;;;;;;;;;;;;5141917;27;20325;-88
2022/07/29 12:14:47;;;;;;;;;;;;;;;;;;5136862;27;20365;-85
2022/07/29 12:17:44;;;;;;;;;;;;;;;;;;5092601;27;19930;-87
2022/07/29 12:20:10;;;;;;;;;;;;;;;;;;5091296;27;19923;-87
2022/07/29 12:22:40;;;;;;;;;;;;;;;;;;5135843;27;19915;-85
2022/07/29 12:25:09;;;;;;;;;;;;;;;;;;5135081;27;19919;-87
2022/07/29 12:27:34;;;;;;;;;;;;;;;;;;5134464;27;20229;-86
2022/07/29 12:30:04;;;;;;;;;;;;;;;;;;5135707;27;19918;-86
2022/07/29 12:32:33;;;;;;;;;;;;;;;;;;5141442;27;19922;-85
2022/07/29 12:34:58;;;;;;;;;;;;;;;;;;5139569;27;19943;-88
2022/07/29 12:37:24;;;;;;;;;;;;;;;;;;5134734;27;20368;-86
2022/07/29 12:39:49;;;;;;;;;;;;;;;;;;5136300;27;19912;-87
2022/07/29 12:42:14;;;;;;;;;;;;;;;;;;5134315;28;19925;-85
2022/07/29 12:44:46;;;;;;;;;;;;;;;;;;5135531;27;20321;-85
2022/07/29 12:47:12;;;;;;;;;;;;;;;;;;5136799;27;19922;-86
2022/07/29 12:49:37;;;;;;;;;;;;;;;;;;5138433;27;20269;-85
2022/07/29 12:52:22;;;;;;;;;;;;;;;;;;5138439;27;19915;-85
2022/07/29 12:54:48;;;;;;;;;;;;;;;;;;5142091;27;19920;-85
2022/07/29 12:57:13;;;;;;;;;;;;;;;;;;5139290;27;19964;-87
2022/07/29 12:59:38;;;;;;;;;;;;;;;;;;5139356;27;19915;-88
2022/07/29 13:02:04;;;;;;;;;;;;;;;;;;5139239;27;20317;-88
2022/07/29 13:04:30;;;;;;;;;;;;;;;;;;5137958;27;19922;-85
2022/07/29 13:07:03;;;;;;;;;;;;;;;;;;5139103;27;19915;-86
2022/07/29 13:09:38;;;;;;;;;;;;;;;;;;5137772;27;19923;-86
2022/07/29 13:12:07;;;;;;;;;;;;;;;;;;5139449;27;20291;-88
2022/07/29 13:14:48;;;;;;;;;;;;;;;;;;5138968;27;19919;-87
2022/07/29 13:17:17;;;;;;;;;;;;;;;;;;5125902;27;19911;-87
2022/07/29 13:19:45;;;;;;;;;;;;;;;;;;5137819;27;19915;-87
2022/07/29 13:22:11;;;;;;;;;;;;;;;;;;5138694;27;20356;-87
2022/07/29 13:24:53;;;;;;;;;;;;;;;;;;5137338;27;19915;-88
2022/07/29 13:27:18;;;;;;;;;;;;;;;;;;5138505;27;19916;-86
2022/07/29 13:29:44;;;;;;;;;;;;;;;;;;5120279;27;20368;-86
2022/07/29 13:32:09;;;;;;;;;;;;;;;;;;5137554;27;19916;-86
2022/07/29 13:34:34;;;;;;;;;;;;;;;;;;5137562;27;19915;-87
2022/07/29 13:37:00;;;;;;;;;;;;;;;;;;5143871;27;20375;-87
2022/07/29 13:39:25;;;;;;;;;;;;;;;;;;5140002;27;20330;-90
2022/07/29 13:41:51;;;;;;;;;;;;;;;;;;5138713;27;19941;-84
2022/07/29 13:44:16;;;;;;;;;;;;;;;;;;5136966;27;19916;-86
2022/07/29 13:46:41;;;;;;;;;;;;;;;;;;5138094;27;20313;-86
2022/07/29 13:49:06;;;;;;;;;;;;;;;;;;5138297;27;19922;-85
2022/07/29 13:51:32;;;;;;;;;;;;;;;;;;5119528;27;19978;-85
2022/07/29 13:53:57;;;;;;;;;;;;;;;;;;5138227;27;19939;-87
2022/07/29 13:56:23;;;;;;;;;;;;;;;;;;5139360;27;20352;-86
2022/07/29 13:58:50;;;;;;;;;;;;;;;;;;5137270;27;20193;-86
2022/07/29 14:01:15;;;;;;;;;;;;;;;;;;5136570;27;20359;-86
2022/07/29 14:03:42;;;;;;;;;;;;;;;;;;5137749;27;20002;-88
2022/07/29 14:06:08;;;;;;;;;;;;;;;;;;5137729;27;19915;-88
2022/07/29 14:08:33;;;;;;;;;;;;;;;;;;5137689;27;20351;-86
2022/07/29 14:10:58;;;;;;;;;;;;;;;;;;5138253;27;19998;-85
2022/07/29 14:13:24;;;;;;;;;;;;;;;;;;5137903;27;19916;-85
2022/07/29 14:15:49;;;;;;;;;;;;;;;;;;5136445;27;20344;-87
2022/07/29 14:18:14;;;;;;;;;;;;;;;;;;5140586;27;19911;-86
2022/07/29 14:20:40;;;;;;;;;;;;;;;;;;5138637;27;19919;-88
2022/07/29 14:23:05;;;;;;;;;;;;;;;;;;5137431;27;20343;-88
2022/07/29 14:25:30;;;;;;;;;;;;;;;;;;5137523;27;19924;-85
2022/07/29 14:27:56;;;;;;;;;;;;;;;;;;5137526;27;19920;-85
2022/07/29 14:30:21;;;;;;;;;;;;;;;;;;5137488;27;19962;-86
2022/07/29 14:32:47;;;;;;;;;;;;;;;;;;5137252;27;19916;-86
2022/07/29 14:35:12;;;;;;;;;;;;;;;;;;5139207;27;19916;-86
2022/07/29 14:37:38;;;;;;;;;;;;;;;;;;5140614;27;19924;-86
2022/07/29 14:40:04;;;;;;;;;;;;;;;;;;5137301;27;19915;-88
2022/07/29 14:42:30;;;;;;;;;;;;;;;;;;5118913;27;20317;-87
2022/07/29 14:44:56;;;;;;;;;;;;;;;;;;5136849;27;20048;-86
2022/07/29 14:47:22;;;;;;;;;;;;;;;;;;5137331;27;20391;-84
2022/07/29 14:49:47;;;;;;;;;;;;;;;;;;5135490;27;19923;-84
2022/07/29 14:52:12;;;;;;;;;;;;;;;;;;5137297;27;19938;-89
2022/07/29 14:54:38;;;;;;;;;;;;;;;;;;5137197;27;20284;-85
2022/07/29 14:57:03;;;;;;;;;;;;;;;;;;5139092;27;20334;-88
2022/07/29 14:59:28;;;;;;;;;;;;;;;;;;5128227;27;20010;-87
2022/07/29 15:01:54;;;;;;;;;;;;;;;;;;5135761;27;20321;-86
2022/07/29 15:04:19;;;;;;;;;;;;;;;;;;5135300;27;19955;-86
2022/07/29 15:06:44;;;;;;;;;;;;;;;;;;5135474;27;19915;-87
2022/07/29 15:09:10;;;;;;;;;;;;;;;;;;5136792;27;19916;-87
2022/07/29 15:11:35;;;;;;;;;;;;;;;;;;5118468;27;19915;-87
2022/07/29 15:14:00;;;;;;;;;;;;;;;;;;5136731;27;19915;-87
2022/07/29 15:16:26;;;;;;;;;;;;;;;;;;5137142;27;19927;-87
2022/07/29 15:18:51;;;;;;;;;;;;;;;;;;5138185;27;19983;-85
2022/07/29 15:21:16;;;;;;;;;;;;;;;;;;5136801;27;20058;-86
2022/07/29 15:23:41;;;;;;;;;;;;;;;;;;5136848;27;19919;-85
2022/07/29 15:26:07;;;;;;;;;;;;;;;;;;5118143;27;19915;-87
2022/07/29 15:28:33;;;;;;;;;;;;;;;;;;5136206;27;19916;-86
2022/07/29 15:30:58;;;;;;;;;;;;;;;;;;5136574;27;19972;-86
2022/07/29 15:33:23;;;;;;;;;;;;;;;;;;5136364;27;19927;-90
2022/07/29 15:35:57;;;;;;;;;;;;;;;;;;5136341;27;19919;-86
2022/07/29 15:38:23;;;;;;;;;;;;;;;;;;5139847;27;19954;-85
2022/07/29 15:40:48;;;;;;;;;;;;;;;;;;5144133;27;19915;-86
2022/07/29 15:43:13;;;;;;;;;;;;;;;;;;5136986;27;19922;-87
2022/07/29 15:45:39;;;;;;;;;;;;;;;;;;5136616;27;20321;-86
2022/07/29 15:48:05;;;;;;;;;;;;;;;;;;5136829;27;19915;-85
2022/07/29 15:50:30;;;;;;;;;;;;;;;;;;5144297;27;19910;-85
2022/07/29 15:52:56;;;;;;;;;;;;;;;;;;5153708;27;19916;-87
2022/07/29 15:55:23;;;;;;;;;;;;;;;;;;5149096;27;19919;-88
2022/07/29 15:57:48;;;;;;;;;;;;;;;;;;5139922;27;19915;-89
2022/07/29 16:00:15;;;;;;;;;;;;;;;;;;5138675;27;19919;-86
2022/07/29 16:02:41;;;;;;;;;;;;;;;;;;5136573;27;19931;-87
2022/07/29 16:05:06;;;;;;;;;;;;;;;;;;5134278;27;19919;-87
2022/07/29 16:07:31;;;;;;;;;;;;;;;;;;5133013;27;19922;-87
2022/07/29 16:09:57;;;;;;;;;;;;;;;;;;5133206;27;19915;-87
2022/07/29 16:12:22;;;;;;;;;;;;;;;;;;5134966;27;19915;-86
2022/07/29 16:14:49;;;;;;;;;;;;;;;;;;5134495;27;20392;-89
2022/07/29 16:17:15;;;;;;;;;;;;;;;;;;5134343;27;19922;-88
2022/07/29 16:19:40;;;;;;;;;;;;;;;;;;5117109;27;19915;-87
2022/07/29 16:22:06;;;;;;;;;;;;;;;;;;5140864;27;19923;-89
2022/07/29 16:24:31;;;;;;;;;;;;;;;;;;5137110;27;19919;-87
2022/07/29 16:26:57;;;;;;;;;;;;;;;;;;5133962;27;19916;-88
2022/07/29 16:29:22;;;;;;;;;;;;;;;;;;5132510;27;19958;-87
2022/07/29 16:31:47;;;;;;;;;;;;;;;;;;5133857;27;19915;-87
2022/07/29 16:34:13;;;;;;;;;;;;;;;;;;5133799;27;19945;-87
2022/07/29 16:36:38;;;;;;;;;;;;;;;;;;5134012;27;19922;-89
2022/07/29 16:39:04;;;;;;;;;;;;;;;;;;5135011;27;19912;-87
2022/07/29 16:41:29;;;;;;;;;;;;;;;;;;5135425;27;19972;-87
2022/07/29 16:43:55;;;;;;;;;;;;;;;;;;5134472;27;19998;-87
2022/07/29 16:46:20;;;;;;;;;;;;;;;;;;5134122;27;19916;-88
2022/07/29 16:48:46;;;;;;;;;;;;;;;;;;5134275;27;19915;-86
2022/07/29 16:51:11;;;;;;;;;;;;;;;;;;5134159;27;19938;-87